Terminal Aerodrome Forecast
Issued by NWS Charleston, WV

Current Version | Previous Version | Graphics & Text | Print | Product List | Glossary On
Versions: 1 2 3 4 5 6 7 8 9 10 11 12 13 14 15 16 17 18 19 20 21 22
000
FTUS41 KRLX 300531
TAFEKN
TAF
KEKN 300531Z 3006/0106 17004KT 6SM -SHRA BKN035
     FM300800 00000KT 3SM BR BKN025
     FM301200 00000KT 2SM BR SCT025
     FM301300 24004KT 6SM BR SCT025 BKN040
     FM301700 26007KT P6SM VCTS BKN060CB=

USA.gov is the U.S. government's official web portal to all federal, state and local government web resources and services.